Terminal Aerodrome Forecast
Issued by NWS Mt. Holly, NJ

Home | Current Version | Previous Version | Text Only | Print | Product List | Glossary On
Versions: 1 2 3 4 5 6 7 8 9 10 11 12 13 14 15 16 17 18 19 20 21 22 23 24 25 26 27
000
FTUS41 KPHI 201700
TAFPHL
TAF
KPHL 201740Z 2018/2124 20010KT P6SM SCT150 BKN200
     FM210000 21005KT P6SM BKN150
     FM210400 24003KT P6SM SCT040 OVC080
     FM211500 19006KT P6SM BKN040
     FM212100 26004KT P6SM SCT040 BKN100=

USA.gov is the U.S. government's official web portal to all federal, state and local government web resources and services.